Time;durP1;ratioP1;P1;durP2;ratioP2;P2;SDS_P1;SDS_P2;PMS_P1;PMS_P2;Temp;Humidity;BMP_temperature;BMP_pressure;BME280_temperature;BME280_humidity;BME280_pressure;Samples;Min_cycle;Max_cycle;Signal;HPM_P1;HPM_P2
2022/04/21 00:00:51;;;;;;;;;;;8.90;91.90;;;;;;6131804;23;19927;-87
2022/04/21 00:03:20;;;;;;;;;;;9.80;91.70;;;;;;6134285;23;19925;-85
2022/04/21 00:05:49;;;;;;;;;;;9.80;92.10;;;;;;6107404;23;19921;-86
2022/04/21 00:08:20;;;;;;;;;;;9.80;92.50;;;;;;6108890;23;19921;-84
2022/04/21 00:10:47;;;;;;;;;;;9.70;92.20;;;;;;6134436;23;19921;-86
2022/04/21 00:13:15;;;;;;;;;;;9.70;92.90;;;;;;6138190;23;19931;-85
2022/04/21 00:15:43;;;;;;;;;;;9.70;92.60;;;;;;6138704;23;19985;-86
2022/04/21 00:18:10;;;;;;;;;;;9.60;92.60;;;;;;6141660;23;19921;-85
2022/04/21 00:20:39;;;;;;;;;;;9.60;93.40;;;;;;6136064;23;20235;-86
2022/04/21 00:26:04;;;;;;;;;;;9.40;93.00;;;;;;6137666;23;19909;-85
2022/04/21 00:28:32;;;;;;;;;;;9.50;94.00;;;;;;6172689;23;20024;-84
2022/04/21 00:31:00;;;;;;;;;;;9.40;93.80;;;;;;6138755;23;19931;-85
2022/04/21 00:33:27;;;;;;;;;;;9.40;94.00;;;;;;6138420;23;19925;-85
2022/04/21 00:35:55;;;;;;;;;;;9.40;94.00;;;;;;6130789;23;20267;-87
2022/04/21 00:38:23;;;;;;;;;;;9.30;95.10;;;;;;6157171;23;19935;-87
2022/04/21 00:40:52;;;;;;;;;;;9.30;94.80;;;;;;6129109;23;19932;-84
2022/04/21 00:43:22;;;;;;;;;;;9.30;94.90;;;;;;6134067;23;19931;-86
2022/04/21 00:45:52;;;;;;;;;;;9.30;94.90;;;;;;6131642;23;20368;-87
2022/04/21 00:48:21;;;;;;;;;;;9.30;94.70;;;;;;6105859;23;19925;-86
2022/04/21 00:50:48;;;;;;;;;;;9.30;95.00;;;;;;6132856;23;19921;-86
2022/04/21 00:53:16;;;;;;;;;;;9.30;94.90;;;;;;6129491;23;20444;-85
2022/04/21 00:55:44;;;;;;;;;;;9.20;94.80;;;;;;6128886;23;19928;-86
2022/04/21 00:58:14;;;;;;;;;;;9.20;94.70;;;;;;6129605;23;19931;-86
2022/04/21 01:00:42;;;;;;;;;;;9.20;95.20;;;;;;6132935;23;19940;-84
2022/04/21 01:03:14;;;;;;;;;;;9.20;95.10;;;;;;6151529;23;20511;-84
2022/04/21 01:05:42;;;;;;;;;;;9.20;95.10;;;;;;6132675;23;19921;-84
2022/04/21 01:08:12;;;;;;;;;;;9.20;95.20;;;;;;6128143;23;20748;-84
2022/04/21 01:10:43;;;;;;;;;;;8.90;95.20;;;;;;6102731;23;19959;-85
2022/04/21 01:13:12;;;;;;;;;;;9.10;95.30;;;;;;6154337;23;19921;-85
2022/04/21 01:15:40;;;;;;;;;;;9.10;95.40;;;;;;6130113;23;19948;-87
2022/04/21 01:18:10;;;;;;;;;;;9.10;95.40;;;;;;6156121;23;19925;-87
2022/04/21 01:20:39;;;;;;;;;;;9.00;95.50;;;;;;6135499;23;20238;-88
2022/04/21 01:23:06;;;;;;;;;;;9.00;96.00;;;;;;6127332;23;19921;-88
2022/04/21 01:25:38;;;;;;;;;;;9.00;95.90;;;;;;6131879;23;19932;-86
2022/04/21 01:28:07;;;;;;;;;;;9.00;97.20;;;;;;6131375;23;19920;-87
2022/04/21 01:30:35;;;;;;;;;;;8.90;96.20;;;;;;6130611;23;19928;-87
2022/04/21 01:33:03;;;;;;;;;;;8.90;96.30;;;;;;6132385;23;20243;-85
2022/04/21 01:35:30;;;;;;;;;;;8.90;96.30;;;;;;6127593;23;19921;-87
2022/04/21 01:43:33;;;;;;;;;;;10.20;96.70;;;;;;6124165;23;19925;-88
2022/04/21 01:46:02;;;;;;;;;;;8.80;96.50;;;;;;6131086;23;20241;-88
2022/04/21 01:48:30;;;;;;;;;;;8.90;96.60;;;;;;6129774;23;19921;-88
2022/04/21 01:50:58;;;;;;;;;;;8.80;96.70;;;;;;6128240;23;19925;-88
2022/04/21 01:53:26;;;;;;;;;;;8.80;96.90;;;;;;6129276;23;19932;-86
2022/04/21 01:55:53;;;;;;;;;;;8.70;97.00;;;;;;6127267;23;19927;-87
2022/04/21 01:58:21;;;;;;;;;;;8.70;97.10;;;;;;6134367;23;19944;-89
2022/04/21 02:00:50;;;;;;;;;;;8.70;97.00;;;;;;6128910;23;19921;-85
2022/04/21 02:03:18;;;;;;;;;;;8.70;97.10;;;;;;6134441;23;20329;-89
2022/04/21 02:05:46;;;;;;;;;;;8.70;97.30;;;;;;6105650;23;20373;-89
2022/04/21 02:08:13;;;;;;;;;;;8.70;97.20;;;;;;6129525;23;19931;-86
2022/04/21 02:10:40;;;;;;;;;;;8.40;97.40;;;;;;6129650;23;19928;-87
2022/04/21 02:13:08;;;;;;;;;;;8.60;97.50;;;;;;6101676;23;19932;-83
2022/04/21 02:15:36;;;;;;;;;;;8.60;97.80;;;;;;6133439;23;19924;-84
2022/04/21 02:18:05;;;;;;;;;;;8.60;97.80;;;;;;6154054;23;19920;-84
2022/04/21 02:20:33;;;;;;;;;;;8.60;97.60;;;;;;6133868;23;19941;-84
2022/04/21 02:23:01;;;;;;;;;;;8.50;97.90;;;;;;6128587;23;19921;-84
2022/04/21 02:25:28;;;;;;;;;;;8.50;97.90;;;;;;6134002;23;19925;-84
2022/04/21 02:27:56;;;;;;;;;;;8.50;97.90;;;;;;6127832;23;19925;-83
2022/04/21 02:30:23;;;;;;;;;;;8.50;98.00;;;;;;6152669;23;19932;-83
2022/04/21 02:32:52;;;;;;;;;;;8.40;98.00;;;;;;6132686;23;19924;-85
2022/04/21 02:35:19;;;;;;;;;;;8.40;98.20;;;;;;6141813;23;19921;-84
2022/04/21 02:37:47;;;;;;;;;;;8.40;98.20;;;;;;6095023;23;19921;-84
2022/04/21 02:40:15;;;;;;;;;;;8.40;98.20;;;;;;6118714;23;19928;-83
2022/04/21 02:42:43;;;;;;;;;;;8.60;98.50;;;;;;6124661;23;20111;-85
2022/04/21 02:45:11;;;;;;;;;;;8.10;98.50;;;;;;6120552;23;19921;-82
2022/04/21 02:47:43;;;;;;;;;;;8.30;98.50;;;;;;6138012;23;19925;-84
2022/04/21 02:50:12;;;;;;;;;;;8.30;98.70;;;;;;6137073;23;19924;-83
2022/04/21 02:52:43;;;;;;;;;;;8.20;98.70;;;;;;6112793;23;19931;-82
2022/04/21 02:57:57;;;;;;;;;;;8.20;98.80;;;;;;6137329;23;19921;-83
2022/04/21 03:00:25;;;;;;;;;;;8.10;98.80;;;;;;6108439;23;19931;-85
2022/04/21 03:02:54;;;;;;;;;;;8.00;98.80;;;;;;6108031;23;20310;-84
2022/04/21 03:05:22;;;;;;;;;;;8.00;98.90;;;;;;6084014;23;19931;-86
2022/04/21 03:07:49;;;;;;;;;;;8.00;99.20;;;;;;6109047;23;19927;-85
2022/04/21 03:10:16;;;;;;;;;;;7.20;98.80;;;;;;6107384;23;19929;-86
2022/04/21 03:12:44;;;;;;;;;;;7.90;99.10;;;;;;6083018;23;19927;-87
2022/04/21 03:15:12;;;;;;;;;;;7.10;99.20;;;;;;6113389;23;19921;-87
2022/04/21 03:17:40;;;;;;;;;;;7.90;99.70;;;;;;6133780;23;20346;-87
2022/04/21 03:20:08;;;;;;;;;;;7.80;99.80;;;;;;6108486;23;19928;-88
2022/04/21 03:25:22;;;;;;;;;;;7.60;99.90;;;;;;6085652;23;19921;-85
2022/04/21 03:27:50;;;;;;;;;;;7.60;99.90;;;;;;6109703;23;19920;-85
2022/04/21 03:30:18;;;;;;;;;;;8.80;99.90;;;;;;6112694;23;19939;-85
2022/04/21 03:32:46;;;;;;;;;;;7.50;99.90;;;;;;6135660;23;19920;-84
2022/04/21 03:35:14;;;;;;;;;;;7.40;99.90;;;;;;6117852;23;19925;-86
2022/04/21 03:37:42;;;;;;;;;;;7.40;99.90;;;;;;6138229;23;19921;-88
2022/04/21 03:40:10;;;;;;;;;;;7.40;99.90;;;;;;6135009;23;20364;-85
2022/04/21 03:42:39;;;;;;;;;;;7.30;99.90;;;;;;6138844;23;19931;-86
2022/04/21 03:45:06;;;;;;;;;;;7.30;99.90;;;;;;6135197;23;19921;-85
2022/04/21 03:47:35;;;;;;;;;;;7.30;99.90;;;;;;6138836;23;19927;-85
2022/04/21 03:50:03;;;;;;;;;;;7.30;99.90;;;;;;6136501;23;19921;-86
2022/04/21 03:52:31;;;;;;;;;;;7.30;99.90;;;;;;6135078;23;19937;-86
2022/04/21 03:54:59;;;;;;;;;;;7.20;99.90;;;;;;6135371;23;19921;-86
2022/04/21 03:57:28;;;;;;;;;;;7.30;99.90;;;;;;6160335;23;19925;-86
2022/04/21 03:59:55;;;;;;;;;;;7.20;99.90;;;;;;6111367;23;19921;-86
2022/04/21 04:02:23;;;;;;;;;;;7.20;99.90;;;;;;6135895;23;20322;-86
2022/04/21 04:04:51;;;;;;;;;;;7.10;99.90;;;;;;6129352;23;19920;-85
2022/04/21 04:12:53;;;;;;;;;;;7.00;99.90;;;;;;6131006;23;19921;-85
2022/04/21 04:15:21;;;;;;;;;;;7.00;99.90;;;;;;6128190;23;19928;-86
2022/04/21 04:17:49;;;;;;;;;;;7.00;99.90;;;;;;6101752;23;19931;-87
2022/04/21 04:20:16;;;;;;;;;;;6.90;99.90;;;;;;6131048;23;19921;-86
2022/04/21 04:22:44;;;;;;;;;;;6.90;99.90;;;;;;6124696;23;20397;-84
2022/04/21 04:25:11;;;;;;;;;;;6.90;99.90;;;;;;6125551;23;20261;-85
2022/04/21 04:27:39;;;;;;;;;;;6.90;99.90;;;;;;6100431;23;19925;-87
2022/04/21 04:30:07;;;;;;;;;;;6.90;99.90;;;;;;6130817;23;19921;-85
2022/04/21 04:32:35;;;;;;;;;;;6.90;99.90;;;;;;6124457;23;19931;-86
2022/04/21 04:35:03;;;;;;;;;;;6.90;99.90;;;;;;6126242;23;19928;-85
2022/04/21 04:37:31;;;;;;;;;;;6.90;99.90;;;;;;6153290;23;19927;-85
2022/04/21 04:39:59;;;;;;;;;;;6.90;99.90;;;;;;6127315;23;19921;-85
2022/04/21 04:42:28;;;;;;;;;;;6.90;99.90;;;;;;6131026;23;19925;-85
2022/04/21 04:47:43;;;;;;;;;;;6.90;99.90;;;;;;6130757;23;19921;-84
2022/04/21 04:50:10;;;;;;;;;;;6.90;99.90;;;;;;6132654;23;19921;-84
2022/04/21 04:52:38;;;;;;;;;;;7.10;99.90;;;;;;6138818;23;20249;-84
2022/04/21 04:55:09;;;;;;;;;;;6.80;99.90;;;;;;6160254;23;19935;-84
2022/04/21 04:57:39;;;;;;;;;;;6.80;99.90;;;;;;6135549;23;19921;-84
2022/04/21 05:00:08;;;;;;;;;;;6.80;99.90;;;;;;6135254;23;19973;-84
2022/04/21 05:02:35;;;;;;;;;;;6.80;99.90;;;;;;6159794;23;19921;-84
2022/04/21 05:05:05;;;;;;;;;;;6.60;99.90;;;;;;6134073;23;19931;-84
2022/04/21 05:07:35;;;;;;;;;;;6.80;99.90;;;;;;6110596;23;19927;-84
2022/04/21 05:10:04;;;;;;;;;;;6.80;99.90;;;;;;6135078;23;19947;-84
2022/04/21 05:12:32;;;;;;;;;;;6.80;99.90;;;;;;6161516;23;19925;-83
2022/04/21 05:15:01;;;;;;;;;;;6.80;99.90;;;;;;6135557;23;19925;-84
2022/04/21 05:17:30;;;;;;;;;;;6.80;99.90;;;;;;6136177;23;20086;-85
2022/04/21 05:20:18;;;;;;;;;;;6.80;99.90;;;;;;6136203;23;19924;-85
2022/04/21 05:22:47;;;;;;;;;;;7.20;99.90;;;;;;6163536;23;19921;-86
2022/04/21 05:25:17;;;;;;;;;;;6.80;99.90;;;;;;6156933;23;19920;-85
2022/04/21 05:27:44;;;;;;;;;;;6.80;99.90;;;;;;6133119;23;19925;-85
2022/04/21 05:33:02;;;;;;;;;;;6.90;99.90;;;;;;6130842;23;19931;-84
2022/04/21 05:35:32;;;;;;;;;;;6.90;99.90;;;;;;6134267;23;19921;-85
2022/04/21 05:37:59;;;;;;;;;;;7.00;99.90;;;;;;6106862;23;19927;-85
2022/04/21 05:40:28;;;;;;;;;;;7.10;99.90;;;;;;6106954;23;19960;-84
2022/04/21 05:43:00;;;;;;;;;;;7.10;99.90;;;;;;6132128;23;19925;-84
2022/04/21 05:45:28;;;;;;;;;;;7.70;99.90;;;;;;6132271;23;19936;-84
2022/04/21 05:47:56;;;;;;;;;;;7.20;99.90;;;;;;6130731;23;19940;-85
2022/04/21 05:50:27;;;;;;;;;;;7.30;99.90;;;;;;6085532;23;19920;-83
2022/04/21 05:52:57;;;;;;;;;;;7.40;99.90;;;;;;6057713;23;19928;-83
2022/04/21 05:55:25;;;;;;;;;;;7.40;99.90;;;;;;6087333;23;19927;-84
2022/04/21 05:57:53;;;;;;;;;;;7.50;99.90;;;;;;6106059;23;20038;-85
2022/04/21 06:00:20;;;;;;;;;;;7.60;99.90;;;;;;6135375;23;19931;-83
2022/04/21 06:02:50;;;;;;;;;;;7.70;99.90;;;;;;6106791;23;20162;-82
2022/04/21 06:05:18;;;;;;;;;;;7.90;99.90;;;;;;6135359;23;19920;-83
2022/04/21 06:07:45;;;;;;;;;;;7.80;99.90;;;;;;6132825;23;19931;-83
2022/04/21 06:10:13;;;;;;;;;;;7.90;99.90;;;;;;6131035;23;19921;-83
2022/04/21 06:12:40;;;;;;;;;;;7.90;99.90;;;;;;6132679;23;19920;-82
2022/04/21 06:15:08;;;;;;;;;;;8.00;99.90;;;;;;6131882;23;19929;-83
2022/04/21 06:17:42;;;;;;;;;;;8.10;99.90;;;;;;6086459;23;19921;-85
2022/04/21 06:20:13;;;;;;;;;;;8.10;99.90;;;;;;6112920;23;19927;-84
2022/04/21 06:22:41;;;;;;;;;;;8.20;99.90;;;;;;6146662;23;19921;-84
2022/04/21 06:25:09;;;;;;;;;;;8.30;99.90;;;;;;6117540;23;20326;-85
2022/04/21 06:27:37;;;;;;;;;;;8.40;99.90;;;;;;6116509;23;19939;-83
2022/04/21 06:30:07;;;;;;;;;;;8.40;99.90;;;;;;6114198;23;19924;-85
2022/04/21 06:32:36;;;;;;;;;;;8.50;99.90;;;;;;6136748;23;19940;-86
2022/04/21 06:35:06;;;;;;;;;;;8.60;99.90;;;;;;6116713;23;19931;-85
2022/04/21 06:37:34;;;;;;;;;;;8.70;99.90;;;;;;6131794;23;19925;-84
2022/04/21 06:40:27;;;;;;;;;;;8.80;99.90;;;;;;6135050;23;19927;-84
2022/04/21 06:48:01;;;;;;;;;;;8.80;99.90;;;;;;6138610;23;19927;-84
2022/04/21 06:48:44;;;;;;;;;;;9.00;99.90;;;;;;6134445;23;19936;-85
2022/04/21 06:51:14;;;;;;;;;;;9.10;99.90;;;;;;6136341;23;20381;-85
2022/04/21 06:53:42;;;;;;;;;;;9.20;99.90;;;;;;6127274;23;19932;-85
2022/04/21 06:56:10;;;;;;;;;;;9.30;99.90;;;;;;6130613;23;19925;-85
2022/04/21 06:58:40;;;;;;;;;;;9.40;99.90;;;;;;6130373;23;19925;-84
2022/04/21 07:01:07;;;;;;;;;;;9.40;99.90;;;;;;6082792;23;19932;-85
2022/04/21 07:03:35;;;;;;;;;;;9.60;99.90;;;;;;6153323;23;19921;-86
2022/04/21 07:06:04;;;;;;;;;;;9.70;99.90;;;;;;6133252;23;19925;-85
2022/04/21 07:08:31;;;;;;;;;;;9.70;99.90;;;;;;6128568;23;19921;-83
2022/04/21 07:10:59;;;;;;;;;;;10.10;99.90;;;;;;6129134;23;19925;-85
2022/04/21 07:13:27;;;;;;;;;;;9.90;99.90;;;;;;6155328;23;19928;-84
2022/04/21 07:15:57;;;;;;;;;;;10.00;99.90;;;;;;6126959;23;19935;-85
2022/04/21 07:18:25;;;;;;;;;;;10.10;99.90;;;;;;6129354;23;19932;-86
2022/04/21 07:21:04;;;;;;;;;;;10.20;99.90;;;;;;6134905;23;19925;-85
2022/04/21 07:23:32;;;;;;;;;;;10.40;99.90;;;;;;6132991;23;19921;-85
2022/04/21 07:26:00;;;;;;;;;;;10.50;99.90;;;;;;6140586;23;20148;-85
2022/04/21 07:28:30;;;;;;;;;;;10.60;99.90;;;;;;6134549;23;19927;-85
2022/04/21 07:31:07;;;;;;;;;;;10.60;99.90;;;;;;6139920;23;20487;-84
2022/04/21 07:33:36;;;;;;;;;;;10.70;99.90;;;;;;6132199;23;19921;-85
2022/04/21 07:36:04;;;;;;;;;;;10.80;99.90;;;;;;6135327;23;19921;-85
2022/04/21 07:38:34;;;;;;;;;;;10.90;99.90;;;;;;6134340;23;19921;-84
2022/04/21 07:41:04;;;;;;;;;;;11.00;99.90;;;;;;6129787;23;19921;-85
2022/04/21 07:43:33;;;;;;;;;;;11.10;99.90;;;;;;6107039;23;19931;-84
2022/04/21 07:46:08;;;;;;;;;;;11.20;99.90;;;;;;6081821;23;19921;-84
2022/04/21 07:51:27;;;;;;;;;;;11.40;99.90;;;;;;6106398;23;19928;-84
2022/04/21 07:53:55;;;;;;;;;;;11.50;99.90;;;;;;6109006;23;20301;-83
2022/04/21 07:56:23;;;;;;;;;;;11.60;99.90;;;;;;6136741;23;19921;-84
2022/04/21 07:58:51;;;;;;;;;;;12.30;99.90;;;;;;6134827;23;19931;-83
2022/04/21 08:01:18;;;;;;;;;;;11.80;99.90;;;;;;6082110;23;20377;-83
2022/04/21 08:03:47;;;;;;;;;;;11.90;99.90;;;;;;6109705;23;19943;-84
2022/04/21 08:06:14;;;;;;;;;;;12.10;99.90;;;;;;6137271;23;19925;-84
2022/04/21 08:08:43;;;;;;;;;;;12.20;99.90;;;;;;6111684;23;19931;-84
2022/04/21 08:11:16;;;;;;;;;;;12.30;99.90;;;;;;6139341;23;19924;-85
2022/04/21 08:13:43;;;;;;;;;;;12.40;99.90;;;;;;6115151;23;19940;-85
2022/04/21 08:16:11;;;;;;;;;;;12.60;99.90;;;;;;6115343;23;19927;-83
2022/04/21 08:18:38;;;;;;;;;;;12.70;99.90;;;;;;6139844;23;19925;-84
2022/04/21 08:21:10;;;;;;;;;;;12.80;99.90;;;;;;6066414;23;19928;-84
2022/04/21 08:32:33;;;;;;;;;;;12.80;99.90;;;;;;6140400;23;19916;-85
2022/04/21 08:33:02;;;;;;;;;;;13.10;99.90;;;;;;6132636;23;19932;-84
2022/04/21 08:35:30;;;;;;;;;;;13.20;99.90;;;;;;6132845;23;19929;-86
2022/04/21 08:37:58;;;;;;;;;;;13.30;99.90;;;;;;6136479;23;19921;-85
2022/04/21 08:40:30;;;;;;;;;;;13.40;99.90;;;;;;6107152;23;19935;-86
2022/04/21 08:43:00;;;;;;;;;;;13.50;99.90;;;;;;6106057;23;19921;-85
2022/04/21 08:45:29;;;;;;;;;;;13.60;99.90;;;;;;6106847;23;19932;-84
2022/04/21 08:47:58;;;;;;;;;;;13.60;99.70;;;;;;6111157;23;19920;-83
2022/04/21 08:50:28;;;;;;;;;;;13.70;99.60;;;;;;6133982;23;19925;-83
2022/04/21 08:52:58;;;;;;;;;;;13.40;99.10;;;;;;6110750;23;19927;-84
2022/04/21 08:55:29;;;;;;;;;;;13.90;99.30;;;;;;6109631;23;19925;-84
2022/04/21 08:57:58;;;;;;;;;;;14.00;98.90;;;;;;6110831;23;19928;-84
2022/04/21 09:00:31;;;;;;;;;;;14.10;98.80;;;;;;6131222;23;19931;-84
2022/04/21 09:03:04;;;;;;;;;;;14.20;98.00;;;;;;6105396;23;20245;-83
2022/04/21 09:05:32;;;;;;;;;;;14.20;97.80;;;;;;6104633;23;19920;-83
2022/04/21 09:08:00;;;;;;;;;;;14.30;97.60;;;;;;6130249;23;20017;-86
2022/04/21 09:11:03;;;;;;;;;;;15.60;97.40;;;;;;6106422;23;19927;-86
2022/04/21 09:13:38;;;;;;;;;;;14.40;97.60;;;;;;6104932;23;19931;-85
2022/04/21 09:16:12;;;;;;;;;;;14.50;97.50;;;;;;6105840;23;19929;-86
2022/04/21 09:18:43;;;;;;;;;;;14.50;96.70;;;;;;6136148;23;19925;-86
2022/04/21 09:21:15;;;;;;;;;;;14.60;97.20;;;;;;6106726;23;19921;-85
2022/04/21 09:23:43;;;;;;;;;;;14.60;97.10;;;;;;6132441;23;19921;-84
2022/04/21 09:26:12;;;;;;;;;;;14.70;97.00;;;;;;6130734;23;20338;-85
2022/04/21 09:28:56;;;;;;;;;;;14.70;97.20;;;;;;6109604;23;20230;-86
2022/04/21 09:31:24;;;;;;;;;;;14.80;96.90;;;;;;6131116;23;19925;-87
2022/04/21 09:33:54;;;;;;;;;;;14.70;96.80;;;;;;6133481;23;19925;-85
2022/04/21 09:36:22;;;;;;;;;;;15.00;96.80;;;;;;6127929;23;19926;-87
2022/04/21 09:38:58;;;;;;;;;;;15.20;96.70;;;;;;6130566;23;19927;-85
2022/04/21 09:41:29;;;;;;;;;;;15.10;96.70;;;;;;6130822;23;19935;-85
2022/04/21 09:46:07;;;;;;;;;;;15.30;96.60;;;;;;6132238;23;19927;-85
2022/04/21 09:47:06;;;;;;;;;;;15.30;96.60;;;;;;6131686;23;20352;-85
2022/04/21 09:49:39;;;;;;;;;;;15.40;96.40;;;;;;6129687;23;19921;-85
2022/04/21 09:52:06;;;;;;;;;;;15.50;96.10;;;;;;6156315;23;19935;-87
2022/04/21 09:54:34;;;;;;;;;;;15.60;96.30;;;;;;6130282;23;19927;-85
2022/04/21 09:57:03;;;;;;;;;;;14.90;96.00;;;;;;6108291;23;19921;-86
2022/04/21 09:59:35;;;;;;;;;;;15.70;95.90;;;;;;6107545;23;19927;-85
2022/04/21 10:02:03;;;;;;;;;;;15.80;95.70;;;;;;6123573;23;19921;-87
2022/04/21 10:04:32;;;;;;;;;;;15.80;95.50;;;;;;6132593;23;19921;-86
2022/04/21 10:07:01;;;;;;;;;;;15.80;95.50;;;;;;6133123;23;19935;-85
2022/04/21 10:09:29;;;;;;;;;;;15.80;95.00;;;;;;6130259;23;19932;-85
2022/04/21 10:11:59;;;;;;;;;;;15.90;95.10;;;;;;6133926;23;19928;-86
2022/04/21 10:14:27;;;;;;;;;;;16.10;95.00;;;;;;6130862;23;19927;-87
2022/04/21 10:16:55;;;;;;;;;;;16.10;95.20;;;;;;6130852;23;19925;-86
2022/04/21 10:19:24;;;;;;;;;;;16.30;94.70;;;;;;6132651;23;20246;-86
2022/04/21 10:21:56;;;;;;;;;;;16.30;94.50;;;;;;6132781;23;20013;-87
2022/04/21 10:24:24;;;;;;;;;;;16.60;94.00;;;;;;6133315;23;20242;-87
2022/04/21 10:26:54;;;;;;;;;;;16.60;93.80;;;;;;6132105;23;19925;-86
2022/04/21 10:29:23;;;;;;;;;;;16.70;93.90;;;;;;6134564;23;19943;-85
2022/04/21 10:32:03;;;;;;;;;;;16.70;93.90;;;;;;6133823;23;20381;-86
2022/04/21 10:34:41;;;;;;;;;;;16.80;93.90;;;;;;6135333;23;19927;-86
2022/04/21 10:37:20;;;;;;;;;;;16.90;92.80;;;;;;6107772;23;19921;-87
2022/04/21 10:39:58;;;;;;;;;;;17.00;93.00;;;;;;6134242;23;19931;-86
2022/04/21 10:42:27;;;;;;;;;;;17.00;92.40;;;;;;6109374;23;19921;-87
2022/04/21 10:44:55;;;;;;;;;;;17.00;93.10;;;;;;6108548;23;19939;-88
2022/04/21 10:47:27;;;;;;;;;;;17.10;92.90;;;;;;6088656;23;19920;-87
2022/04/21 10:50:02;;;;;;;;;;;17.20;92.50;;;;;;6105030;23;19931;-86
2022/04/21 10:57:51;;;;;;;;;;;17.50;92.60;;;;;;6134048;23;19921;-86
2022/04/21 11:00:26;;;;;;;;;;;17.50;91.70;;;;;;6109840;23;19921;-87
2022/04/21 11:03:05;;;;;;;;;;;17.50;92.40;;;;;;6086522;23;19955;-86
2022/04/21 11:05:39;;;;;;;;;;;17.50;91.80;;;;;;6135922;23;19925;-86
2022/04/21 11:08:10;;;;;;;;;;;17.60;92.20;;;;;;6107751;23;19921;-87
2022/04/21 11:10:41;;;;;;;;;;;17.60;91.90;;;;;;6109879;23;19928;-86
2022/04/21 11:13:10;;;;;;;;;;;17.60;92.10;;;;;;6103992;23;19925;-85
2022/04/21 11:15:49;;;;;;;;;;;17.70;91.50;;;;;;6104431;23;19925;-86
2022/04/21 11:18:36;;;;;;;;;;;17.60;90.80;;;;;;6085758;23;19921;-86
2022/04/21 11:21:23;;;;;;;;;;;17.60;91.10;;;;;;6130447;23;19932;-86
2022/04/21 11:23:51;;;;;;;;;;;17.60;91.00;;;;;;6111064;23;19948;-87
2022/04/21 11:26:25;;;;;;;;;;;17.70;90.80;;;;;;6109288;23;19925;-86
2022/04/21 11:28:59;;;;;;;;;;;17.70;90.40;;;;;;6138035;23;19943;-86
2022/04/21 11:31:28;;;;;;;;;;;17.60;90.40;;;;;;6111679;23;19931;-84
2022/04/21 11:33:59;;;;;;;;;;;17.70;90.50;;;;;;6109118;23;19921;-87
2022/04/21 11:36:36;;;;;;;;;;;17.80;90.60;;;;;;6113569;23;19931;-85
2022/04/21 11:39:08;;;;;;;;;;;17.90;89.60;;;;;;6120796;23;19931;-86
2022/04/21 11:41:41;;;;;;;;;;;18.00;89.20;;;;;;6137046;23;19925;-87
2022/04/21 11:44:11;;;;;;;;;;;18.10;88.40;;;;;;6108684;23;19921;-84
2022/04/21 11:46:39;;;;;;;;;;;18.20;88.90;;;;;;6110187;23;19927;-87
2022/04/21 11:49:11;;;;;;;;;;;18.10;88.60;;;;;;6136881;23;19921;-85
2022/04/21 11:51:42;;;;;;;;;;;18.10;88.10;;;;;;6136893;23;19925;-87
2022/04/21 11:54:11;;;;;;;;;;;18.20;88.20;;;;;;6113248;23;19927;-87
2022/04/21 11:56:39;;;;;;;;;;;18.30;86.60;;;;;;6135552;23;19925;-87
2022/04/21 11:59:10;;;;;;;;;;;18.30;86.20;;;;;;6110679;23;19924;-85
2022/04/21 12:07:25;;;;;;;;;;;18.70;86.30;;;;;;6113112;23;19931;-86
2022/04/21 12:09:55;;;;;;;;;;;18.60;84.70;;;;;;6061429;23;19925;-86
2022/04/21 12:12:22;;;;;;;;;;;18.70;84.30;;;;;;6114057;23;19921;-85
2022/04/21 12:14:53;;;;;;;;;;;18.70;84.70;;;;;;6087147;23;20125;-86
2022/04/21 12:17:29;;;;;;;;;;;18.70;82.90;;;;;;6112879;23;19925;-85
2022/04/21 12:20:00;;;;;;;;;;;18.70;83.90;;;;;;6139784;23;19921;-86
2022/04/21 12:22:32;;;;;;;;;;;18.80;83.60;;;;;;6113821;23;19931;-86
2022/04/21 12:25:00;;;;;;;;;;;18.80;83.60;;;;;;6108131;23;19924;-90
2022/04/21 12:27:34;;;;;;;;;;;18.80;83.90;;;;;;6136402;23;19929;-86
2022/04/21 12:30:15;;;;;;;;;;;18.90;82.80;;;;;;6096736;23;19921;-86
2022/04/21 12:32:47;;;;;;;;;;;18.90;83.60;;;;;;6115649;23;19932;-84
2022/04/21 12:35:15;;;;;;;;;;;19.00;83.40;;;;;;6066477;23;19917;-84
2022/04/21 12:37:50;;;;;;;;;;;19.50;82.30;;;;;;6112844;23;19927;-86
2022/04/21 12:40:21;;;;;;;;;;;19.40;82.10;;;;;;6110239;23;19921;-85
2022/04/21 12:42:54;;;;;;;;;;;19.50;82.40;;;;;;6108816;23;19932;-87
2022/04/21 12:45:23;;;;;;;;;;;19.60;82.00;;;;;;6108045;23;19925;-84
2022/04/21 12:47:52;;;;;;;;;;;19.60;82.00;;;;;;6110278;23;19925;-84
2022/04/21 12:50:21;;;;;;;;;;;19.70;80.60;;;;;;6137723;23;19921;-83
2022/04/21 12:52:52;;;;;;;;;;;19.80;80.90;;;;;;6108140;23;20334;-84
2022/04/21 12:55:28;;;;;;;;;;;20.00;80.40;;;;;;6086647;23;19932;-86
2022/04/21 12:58:13;;;;;;;;;;;20.00;79.80;;;;;;6136479;23;19931;-88
2022/04/21 13:00:41;;;;;;;;;;;20.10;79.00;;;;;;6110368;23;19925;-86
2022/04/21 13:03:13;;;;;;;;;;;20.60;80.40;;;;;;6110439;23;19931;-85
2022/04/21 13:05:49;;;;;;;;;;;20.70;79.30;;;;;;6084911;23;19921;-84
2022/04/21 13:08:20;;;;;;;;;;;20.30;79.10;;;;;;6107680;23;19928;-83
2022/04/21 13:10:51;;;;;;;;;;;20.20;79.10;;;;;;6111658;23;19925;-85
2022/04/21 13:13:19;;;;;;;;;;;20.20;79.60;;;;;;6083509;23;19921;-86
2022/04/21 13:15:47;;;;;;;;;;;20.10;78.90;;;;;;6108342;23;19921;-85
2022/04/21 13:18:16;;;;;;;;;;;20.00;78.70;;;;;;6118491;23;19921;-86
2022/04/21 13:23:40;;;;;;;;;;;20.00;78.90;;;;;;6134988;23;19921;-84
2022/04/21 13:26:16;;;;;;;;;;;20.20;78.50;;;;;;6111673;23;19921;-84
2022/04/21 13:28:58;;;;;;;;;;;20.20;78.50;;;;;;6109296;23;20781;-84
2022/04/21 13:34:12;;;;;;;;;;;20.20;77.10;;;;;;6134691;23;19928;-88
2022/04/21 13:36:42;;;;;;;;;;;20.10;77.70;;;;;;6130455;23;19927;-85
2022/04/21 13:39:11;;;;;;;;;;;20.20;77.50;;;;;;6108492;23;19931;-84
2022/04/21 13:41:38;;;;;;;;;;;20.40;76.00;;;;;;6105712;23;19940;-85
2022/04/21 13:44:07;;;;;;;;;;;20.30;76.40;;;;;;6105067;23;20359;-85
2022/04/21 13:46:56;;;;;;;;;;;20.30;75.60;;;;;;6086271;23;19924;-84
2022/04/21 13:49:24;;;;;;;;;;;20.40;74.90;;;;;;6129930;23;20183;-86
2022/04/21 13:51:52;;;;;;;;;;;20.50;74.30;;;;;;6135576;23;19921;-84
2022/04/21 13:54:20;;;;;;;;;;;20.30;74.20;;;;;;6128869;23;19921;-84
2022/04/21 13:56:47;;;;;;;;;;;20.70;74.90;;;;;;6130725;23;20376;-84
2022/04/21 13:59:16;;;;;;;;;;;21.00;74.10;;;;;;6134075;23;19925;-85
2022/04/21 14:01:44;;;;;;;;;;;21.20;74.00;;;;;;6129933;23;19924;-86
2022/04/21 14:04:14;;;;;;;;;;;21.00;72.70;;;;;;6104490;23;19931;-87
2022/04/21 14:06:42;;;;;;;;;;;21.30;71.70;;;;;;6129228;23;20126;-85
2022/04/21 14:09:10;;;;;;;;;;;21.30;72.00;;;;;;6125840;23;20231;-85
2022/04/21 14:11:39;;;;;;;;;;;21.50;71.80;;;;;;6130824;23;19925;-85
2022/04/21 14:14:08;;;;;;;;;;;21.60;71.70;;;;;;6129432;23;19920;-86
2022/04/21 14:16:37;;;;;;;;;;;21.80;70.50;;;;;;6102437;23;19925;-85
2022/04/21 14:19:06;;;;;;;;;;;22.00;69.70;;;;;;6128728;23;20423;-84
2022/04/21 14:21:34;;;;;;;;;;;22.10;69.20;;;;;;6133831;23;19936;-85
2022/04/21 14:24:04;;;;;;;;;;;22.10;69.70;;;;;;6106875;23;19928;-85
2022/04/21 14:26:32;;;;;;;;;;;23.50;69.70;;;;;;6130480;23;19928;-84
2022/04/21 14:29:01;;;;;;;;;;;21.80;67.90;;;;;;6133033;23;19921;-86
2022/04/21 14:31:30;;;;;;;;;;;21.80;67.40;;;;;;6135133;23;19921;-84
2022/04/21 14:33:58;;;;;;;;;;;21.90;67.40;;;;;;6108889;23;19932;-85
2022/04/21 14:36:27;;;;;;;;;;;21.90;66.50;;;;;;6135793;23;19939;-86
2022/04/21 14:44:28;;;;;;;;;;;22.60;63.80;;;;;;6128716;23;19925;-84
2022/04/21 14:47:03;;;;;;;;;;;22.80;63.30;;;;;;6128910;23;19936;-85
2022/04/21 14:49:50;;;;;;;;;;;23.00;63.20;;;;;;6132743;23;19921;-84
2022/04/21 14:52:20;;;;;;;;;;;23.10;62.80;;;;;;6104378;23;19921;-85
2022/04/21 14:54:49;;;;;;;;;;;23.10;61.90;;;;;;6101393;23;20071;-83
2022/04/21 14:57:17;;;;;;;;;;;23.20;62.70;;;;;;6107036;23;19928;-85
2022/04/21 14:59:44;;;;;;;;;;;23.40;63.20;;;;;;6124078;23;19928;-84
2022/04/21 15:02:12;;;;;;;;;;;23.40;63.20;;;;;;6128087;23;19931;-86
2022/04/21 15:04:39;;;;;;;;;;;23.40;62.10;;;;;;6131887;23;19928;-85
2022/04/21 15:07:09;;;;;;;;;;;23.60;62.20;;;;;;6128676;23;19925;-87
2022/04/21 15:09:36;;;;;;;;;;;23.70;61.50;;;;;;6104683;23;19927;-84
2022/04/21 15:12:05;;;;;;;;;;;23.60;60.60;;;;;;6102686;23;19925;-83
2022/04/21 15:14:32;;;;;;;;;;;23.40;61.70;;;;;;6108845;23;19925;-84
2022/04/21 15:17:01;;;;;;;;;;;23.30;62.00;;;;;;6081716;23;19983;-85
2022/04/21 15:19:28;;;;;;;;;;;23.30;61.20;;;;;;6133577;23;20515;-86
2022/04/21 15:21:56;;;;;;;;;;;23.20;60.90;;;;;;6103917;23;19921;-86
2022/04/21 15:24:24;;;;;;;;;;;23.10;60.80;;;;;;6109769;23;19924;-86
2022/04/21 15:26:55;;;;;;;;;;;23.10;61.10;;;;;;6107418;23;19925;-85
2022/04/21 15:29:23;;;;;;;;;;;23.10;60.70;;;;;;6107222;23;19925;-83
2022/04/21 15:31:50;;;;;;;;;;;23.20;60.60;;;;;;6138241;23;19921;-86
2022/04/21 15:34:18;;;;;;;;;;;23.20;59.80;;;;;;6137955;23;19920;-85
2022/04/21 15:36:46;;;;;;;;;;;23.70;60.90;;;;;;6090237;23;19911;-84
2022/04/21 15:39:14;;;;;;;;;;;23.40;60.20;;;;;;6116307;23;19966;-86